Time;durP1;ratioP1;P1;durP2;ratioP2;P2;SDS_P1;SDS_P2;PMS_P1;PMS_P2;Temp;Humidity;BMP_temperature;BMP_pressure;BME280_temperature;BME280_humidity;BME280_pressure;Samples;Min_cycle;Max_cycle;Signal;HPM_P1;HPM_P2
2021/10/08 00:01:08;;;;;;;11.82;6.13;;;;;;;19.91;59.94;100641.50;5015155;28;20133;-70
2021/10/08 00:03:35;;;;;;;13.05;5.78;;;;;;;19.94;59.86;100649.31;5028108;28;20465;-70
2021/10/08 00:06:02;;;;;;;12.50;7.05;;;;;;;19.93;60.04;100645.66;5025267;28;20050;-69
2021/10/08 00:08:29;;;;;;;13.38;6.82;;;;;;;19.96;60.27;100652.63;5022762;28;20049;-70
2021/10/08 00:10:55;;;;;;;13.60;7.20;;;;;;;20.00;59.83;100645.94;5029738;28;20053;-64
2021/10/08 00:13:22;;;;;;;11.85;5.85;;;;;;;19.98;59.67;100642.59;5020205;28;20619;-64
2021/10/08 00:15:50;;;;;;;20.02;7.68;;;;;;;20.08;59.51;100638.56;5017432;28;20050;-65
2021/10/08 00:18:16;;;;;;;11.27;6.85;;;;;;;20.10;59.38;100650.38;5014896;28;20441;-67
2021/10/08 00:20:43;;;;;;;14.88;7.03;;;;;;;20.02;59.26;100649.25;5025586;28;20129;-71
2021/10/08 00:23:10;;;;;;;15.80;6.85;;;;;;;19.92;59.40;100654.47;5015808;28;20102;-73
2021/10/08 00:25:39;;;;;;;15.60;7.65;;;;;;;19.79;59.33;100645.03;5016935;28;20123;-72
2021/10/08 00:28:07;;;;;;;20.27;9.83;;;;;;;19.75;59.49;100646.88;5001556;28;20050;-72
2021/10/08 00:30:34;;;;;;;16.85;9.82;;;;;;;19.56;59.40;100625.44;5024237;28;20045;-78
2021/10/08 00:33:01;;;;;;;18.15;8.52;;;;;;;19.61;59.81;100644.25;5018882;28;20081;-72
2021/10/08 00:35:29;;;;;;;20.23;9.68;;;;;;;19.52;60.14;100644.31;5020769;28;20145;-71
2021/10/08 00:37:56;;;;;;;18.23;9.82;;;;;;;19.42;59.89;100647.50;5019257;28;20072;-72
2021/10/08 00:40:24;;;;;;;21.60;10.40;;;;;;;19.27;60.31;100639.53;5025471;28;20550;-69
2021/10/08 00:42:51;;;;;;;20.05;10.95;;;;;;;19.17;60.38;100635.06;5021083;28;20080;-70
2021/10/08 00:45:18;;;;;;;22.05;11.38;;;;;;;19.18;60.45;100646.06;5022591;28;20053;-75
2021/10/08 00:47:58;;;;;;;18.73;10.90;;;;;;;19.07;60.35;100636.25;5022719;28;20579;-76
2021/10/08 00:50:26;;;;;;;26.67;11.23;;;;;;;19.07;60.85;100658.88;5014426;28;20042;-71
2021/10/08 00:52:53;;;;;;;18.95;10.35;;;;;;;18.93;61.00;100641.25;5019598;28;20171;-73
2021/10/08 00:55:20;;;;;;;19.60;10.43;;;;;;;18.95;60.82;100650.25;5017428;28;20157;-71
2021/10/08 00:57:47;;;;;;;22.10;11.07;;;;;;;18.72;60.81;100620.47;5018615;28;20133;-70
2021/10/08 01:00:16;;;;;;;17.83;10.73;;;;;;;18.77;60.80;100631.63;5020554;28;20073;-64
2021/10/08 01:02:44;;;;;;;21.45;9.75;;;;;;;18.79;61.01;100652.75;5022257;28;20073;-64
2021/10/08 01:05:11;;;;;;;20.08;9.95;;;;;;;18.74;61.09;100657.78;5022588;28;20080;-63
2021/10/08 01:07:38;;;;;;;16.30;9.50;;;;;;;18.64;61.25;100656.91;5024821;28;20091;-67
2021/10/08 01:10:07;;;;;;;23.08;10.25;;;;;;;18.63;61.39;100655.25;5027222;28;20465;-80
2021/10/08 01:12:34;;;;;;;14.25;8.02;;;;;;;18.57;61.88;100662.22;5018624;28;20046;-76
2021/10/08 01:15:02;;;;;;;17.67;9.23;;;;;;;18.56;61.79;100654.88;5019677;28;20120;-73
2021/10/08 01:17:29;;;;;;;19.00;8.70;;;;;;;18.46;62.14;100641.06;5026866;28;20140;-69
2021/10/08 01:20:05;;;;;;;18.50;8.90;;;;;;;18.44;61.88;100634.94;5027823;28;20067;-74
2021/10/08 01:22:32;;;;;;;15.35;8.30;;;;;;;18.53;61.84;100647.09;5024238;28;20245;-74
2021/10/08 01:24:59;;;;;;;14.40;7.22;;;;;;;18.56;61.99;100668.19;5015561;28;20152;-75
2021/10/08 01:27:26;;;;;;;14.32;7.80;;;;;;;18.58;62.07;100663.06;5028483;28;20180;-74
2021/10/08 01:29:56;;;;;;;16.88;8.23;;;;;;;18.61;62.69;100653.91;5020653;28;20096;-74
2021/10/08 01:32:25;;;;;;;13.73;8.18;;;;;;;18.61;62.52;100640.59;5029243;28;20073;-74
2021/10/08 01:34:51;;;;;;;12.95;7.55;;;;;;;18.47;62.62;100622.97;5027123;28;20120;-74
2021/10/08 01:37:19;;;;;;;19.40;8.15;;;;;;;18.64;62.69;100642.75;5028693;28;20050;-71
2021/10/08 01:39:47;;;;;;;16.88;8.40;;;;;;;18.65;62.44;100641.59;5029294;28;20045;-75
2021/10/08 01:42:15;;;;;;;16.42;8.48;;;;;;;18.67;62.85;100639.25;5021560;28;20066;-74
2021/10/08 01:44:42;;;;;;;14.95;8.32;;;;;;;18.65;62.97;100635.94;5009533;28;20136;-73
2021/10/08 01:47:10;;;;;;;19.30;8.98;;;;;;;18.67;63.15;100641.28;5029443;28;20049;-70
2021/10/08 01:49:37;;;;;;;16.00;8.32;;;;;;;18.59;63.16;100620.28;5023694;28;20132;-70
2021/10/08 01:52:05;;;;;;;15.02;7.28;;;;;;;18.68;62.95;100628.78;5031118;28;20141;-69
2021/10/08 01:54:32;;;;;;;16.48;8.88;;;;;;;18.73;62.57;100636.28;5025971;28;20793;-70
2021/10/08 01:56:59;;;;;;;18.65;8.23;;;;;;;18.84;62.66;100643.28;5025420;28;20132;-71
2021/10/08 01:59:26;;;;;;;18.98;8.43;;;;;;;18.89;62.73;100640.28;5027496;28;20140;-70
2021/10/08 02:01:53;;;;;;;14.85;7.72;;;;;;;18.85;62.70;100623.13;5025174;28;20136;-68
2021/10/08 02:04:20;;;;;;;17.75;7.63;;;;;;;18.84;62.79;100615.00;5028535;28;20046;-68
2021/10/08 02:06:46;;;;;;;20.98;7.57;;;;;;;19.03;62.44;100638.09;5023842;28;20068;-68
2021/10/08 02:09:13;;;;;;;16.45;8.25;;;;;;;19.05;62.15;100627.28;5021575;28;20136;-66
2021/10/08 02:11:40;;;;;;;17.42;9.25;;;;;;;19.14;62.26;100625.25;5034115;28;20088;-66
2021/10/08 02:14:07;;;;;;;19.20;8.82;;;;;;;19.16;62.05;100631.41;5024153;28;20132;-66
2021/10/08 02:16:34;;;;;;;15.73;8.52;;;;;;;19.20;62.08;100633.56;5020801;28;20128;-66
2021/10/08 02:19:01;;;;;;;17.35;9.20;;;;;;;19.08;61.69;100606.78;5027493;28;20049;-66
2021/10/08 02:21:28;;;;;;;18.80;8.60;;;;;;;19.16;61.84;100617.25;5009925;28;20073;-66
2021/10/08 02:23:55;;;;;;;19.10;8.63;;;;;;;19.12;61.82;100609.78;5031750;28;20455;-66
2021/10/08 02:26:23;;;;;;;15.15;9.00;;;;;;;19.17;61.46;100624.56;5030547;28;20539;-66
2021/10/08 02:28:49;;;;;;;16.52;7.80;;;;;;;19.14;61.82;100636.59;5029320;28;20489;-67
2021/10/08 02:31:16;;;;;;;16.10;8.27;;;;;;;19.08;61.99;100614.44;5019098;28;20128;-67
2021/10/08 02:33:44;;;;;;;14.98;7.45;;;;;;;19.09;61.81;100616.94;5020108;28;20041;-67
2021/10/08 02:36:12;;;;;;;20.02;9.10;;;;;;;19.12;61.82;100616.25;5023880;28;20129;-67
2021/10/08 02:38:40;;;;;;;13.25;7.90;;;;;;;19.14;61.65;100619.59;5024818;28;20492;-67
2021/10/08 02:41:07;;;;;;;14.05;8.05;;;;;;;19.09;61.54;100610.44;5021717;28;20045;-68
2021/10/08 02:43:34;;;;;;;18.98;8.88;;;;;;;19.08;61.60;100617.28;4996250;28;20128;-69
2021/10/08 02:46:01;;;;;;;15.27;8.35;;;;;;;19.05;61.96;100612.28;5021611;28;20077;-67
2021/10/08 02:48:28;;;;;;;13.25;7.40;;;;;;;18.96;61.84;100620.78;5012862;28;20443;-68
2021/10/08 02:50:56;;;;;;;13.45;7.47;;;;;;;18.88;61.63;100607.50;5030624;28;20096;-67
2021/10/08 02:53:23;;;;;;;15.05;8.18;;;;;;;18.93;61.78;100610.13;5016243;28;20097;-67
2021/10/08 02:55:50;;;;;;;13.50;7.07;;;;;;;18.93;62.01;100618.63;5024415;28;20084;-67
2021/10/08 02:58:16;;;;;;;13.45;6.70;;;;;;;18.92;62.17;100614.97;5021918;28;20129;-69
2021/10/08 03:00:43;;;;;;;16.05;7.05;;;;;;;18.88;61.81;100610.31;5010963;28;20397;-68
2021/10/08 03:03:10;;;;;;;17.45;6.57;;;;;;;18.84;62.19;100609.34;5021239;28;20099;-65
2021/10/08 03:05:37;;;;;;;14.57;6.85;;;;;;;18.76;62.17;100590.34;5028957;28;20519;-66
2021/10/08 03:08:04;;;;;;;12.90;6.63;;;;;;;18.68;62.31;100601.31;5028988;28;20171;-67
2021/10/08 03:10:31;;;;;;;13.38;6.13;;;;;;;18.54;62.97;100597.00;5024233;28;20073;-68
2021/10/08 03:12:58;;;;;;;13.50;7.25;;;;;;;18.45;63.00;100606.31;5017712;28;20452;-68
2021/10/08 03:15:25;;;;;;;22.33;7.30;;;;;;;18.31;63.87;100599.16;5021314;28;20124;-71
2021/10/08 03:17:52;;;;;;;11.45;6.20;;;;;;;18.24;63.92;100594.81;5014296;28;20111;-71
2021/10/08 03:20:19;;;;;;;12.93;6.03;;;;;;;18.14;64.47;100603.63;5022780;28;20442;-70
2021/10/08 03:22:46;;;;;;;15.90;7.30;;;;;;;18.02;64.67;100582.81;5014704;28;20128;-67
2021/10/08 03:25:13;;;;;;;14.10;6.28;;;;;;;18.08;64.61;100592.81;5026009;28;20431;-67
2021/10/08 03:27:41;;;;;;;13.70;6.53;;;;;;;18.12;64.67;100600.31;5019430;28;20132;-68
2021/10/08 03:30:11;;;;;;;12.88;6.88;;;;;;;18.17;64.23;100597.31;5012478;28;20253;-68
2021/10/08 03:32:38;;;;;;;10.70;6.18;;;;;;;18.23;64.30;100601.66;5020685;28;20076;-74
2021/10/08 03:35:06;;;;;;;13.98;7.28;;;;;;;18.27;63.65;100601.00;5026512;28;20480;-73
2021/10/08 03:40:24;;;;;;;13.82;5.88;;;;;;;18.16;64.00;100584.34;5016278;28;20140;-68
2021/10/08 03:42:52;;;;;;;16.83;6.35;;;;;;;18.11;63.90;100589.31;5027214;28;20141;-70
2021/10/08 03:45:19;;;;;;;20.30;7.07;;;;;;;18.18;64.37;100592.50;5026501;28;20072;-69
2021/10/08 03:48:06;;;;;;;15.35;7.10;;;;;;;18.17;64.07;100602.97;5012307;28;20076;-69
2021/10/08 03:50:33;;;;;;;12.55;6.78;;;;;;;18.18;64.45;100601.81;5023208;28;20072;-72
2021/10/08 03:53:00;;;;;;;17.27;7.00;;;;;;;18.19;64.13;100597.00;5022827;28;20547;-72
2021/10/08 03:55:27;;;;;;;17.23;8.05;;;;;;;18.16;64.20;100584.34;5028157;28;20136;-72
2021/10/08 03:57:54;;;;;;;14.32;6.85;;;;;;;18.24;64.08;100600.47;5026403;28;20140;-73
2021/10/08 04:00:21;;;;;;;17.58;7.40;;;;;;;18.23;64.26;100612.97;5007927;28;20488;-74
2021/10/08 04:02:47;;;;;;;14.40;6.97;;;;;;;18.13;64.13;100601.16;5018885;28;20092;-73
2021/10/08 04:05:14;;;;;;;10.02;6.07;;;;;;;18.03;64.20;100582.50;5006799;28;20136;-72
2021/10/08 04:07:41;;;;;;;9.55;6.05;;;;;;;18.06;64.31;100592.31;5017084;28;20128;-72
2021/10/08 04:10:08;;;;;;;13.73;7.43;;;;;;;17.82;64.67;100567.34;5024440;28;20076;-73
2021/10/08 04:12:35;;;;;;;15.65;5.93;;;;;;;17.95;64.77;100595.47;5018299;28;20129;-74
2021/10/08 04:15:03;;;;;;;15.85;6.70;;;;;;;17.94;64.92;100588.13;5018305;28;20116;-78
2021/10/08 04:17:30;;;;;;;12.65;6.32;;;;;;;17.92;64.88;100589.66;5026647;28;20120;-73
2021/10/08 04:19:57;;;;;;;15.00;6.15;;;;;;;17.97;64.32;100593.13;5024586;28;20136;-73
2021/10/08 04:22:23;;;;;;;13.90;6.85;;;;;;;17.94;64.65;100584.47;5028382;28;20080;-73
2021/10/08 04:24:50;;;;;;;15.88;7.60;;;;;;;18.00;64.44;100598.13;5025796;28;20045;-73
2021/10/08 04:27:17;;;;;;;16.95;7.28;;;;;;;18.12;63.80;100599.47;5012928;28;20100;-71
2021/10/08 04:29:44;;;;;;;10.77;6.57;;;;;;;18.16;63.72;100595.66;5034040;28;20107;-69
2021/10/08 04:32:11;;;;;;;11.30;6.15;;;;;;;18.21;63.09;100601.13;5020891;28;20121;-73
2021/10/08 04:34:38;;;;;;;14.32;8.05;;;;;;;18.26;63.01;100600.16;5019558;28;20128;-80
2021/10/08 04:37:04;;;;;;;15.82;6.43;;;;;;;18.21;63.07;100587.00;5032382;28;20136;-82
2021/10/08 04:39:31;;;;;;;10.57;6.35;;;;;;;18.34;63.09;100595.69;5026141;28;20050;-78
2021/10/08 04:41:58;;;;;;;13.90;6.28;;;;;;;18.08;62.80;100558.91;5026092;28;20136;-77
2021/10/08 04:44:25;;;;;;;11.95;6.80;;;;;;;18.27;62.64;100595.34;5021954;28;20148;-75
2021/10/08 04:46:52;;;;;;;11.20;6.38;;;;;;;18.22;62.83;100593.50;5027166;28;20056;-74
2021/10/08 04:49:18;;;;;;;11.82;6.03;;;;;;;18.16;62.68;100595.66;5026529;28;20049;-73
2021/10/08 04:51:45;;;;;;;15.15;6.30;;;;;;;18.13;62.93;100587.84;5026803;28;20121;-74
2021/10/08 04:54:12;;;;;;;9.50;5.28;;;;;;;18.04;62.70;100575.69;5031050;28;20080;-76
2021/10/08 04:56:39;;;;;;;11.95;5.78;;;;;;;18.09;62.65;100584.03;5026292;28;20132;-72
2021/10/08 04:59:06;;;;;;;9.88;5.93;;;;;;;18.08;62.67;100585.16;5032874;28;20048;-70
2021/10/08 05:01:32;;;;;;;10.70;6.47;;;;;;;18.01;62.68;100584.81;5023267;28;20069;-71
2021/10/08 05:03:59;;;;;;;8.60;4.38;;;;;;;18.00;62.82;100583.16;5023619;28;20813;-68
2021/10/08 05:06:26;;;;;;;9.77;5.72;;;;;;;17.88;62.61;100578.16;5016638;28;20140;-69
2021/10/08 05:08:53;;;;;;;10.57;5.70;;;;;;;17.80;62.59;100570.50;5031171;28;20568;-68
2021/10/08 05:11:20;;;;;;;15.05;5.53;;;;;;;17.87;62.81;100586.97;5026671;28;20049;-70
2021/10/08 05:13:47;;;;;;;9.77;5.18;;;;;;;17.90;62.55;100591.94;5029384;28;20458;-67
2021/10/08 05:16:14;;;;;;;15.02;5.45;;;;;;;17.85;62.33;100595.78;5011691;28;20485;-66
2021/10/08 05:18:41;;;;;;;11.75;5.18;;;;;;;17.82;62.82;100595.59;5025754;28;20103;-67
2021/10/08 05:21:08;;;;;;;12.38;4.88;;;;;;;17.80;62.48;100600.72;5024540;28;20080;-70
2021/10/08 05:23:35;;;;;;;12.63;4.70;;;;;;;17.65;62.34;100585.06;5027932;28;20046;-68
2021/10/08 05:26:02;;;;;;;12.10;5.03;;;;;;;17.74;62.65;100600.88;5020224;28;20104;-73
2021/10/08 05:28:29;;;;;;;10.95;4.72;;;;;;;17.62;62.50;100597.81;5027075;28;20461;-70
2021/10/08 05:30:56;;;;;;;7.80;4.68;;;;;;;17.47;63.17;100584.13;5020253;28;20132;-69
2021/10/08 05:33:23;;;;;;;11.07;4.82;;;;;;;17.27;62.73;100557.34;5031468;28;20041;-69
2021/10/08 05:35:50;;;;;;;12.23;4.72;;;;;;;17.47;62.90;100589.78;5024383;28;20049;-69
2021/10/08 05:38:18;;;;;;;8.88;4.80;;;;;;;17.55;63.00;100597.47;5027062;28;20050;-68
2021/10/08 05:40:51;;;;;;;7.45;4.55;;;;;;;17.59;62.48;100590.00;5031830;28;20100;-67
2021/10/08 05:43:19;;;;;;;12.75;5.53;;;;;;;17.64;62.61;100589.88;5033799;28;20495;-62
2021/10/08 05:45:46;;;;;;;7.78;4.88;;;;;;;17.56;61.93;100575.72;5022205;28;20129;-60
2021/10/08 05:48:14;;;;;;;10.55;5.10;;;;;;;17.61;61.86;100584.06;5034074;28;20049;-59
2021/10/08 05:50:41;;;;;;;12.10;4.95;;;;;;;17.63;62.02;100581.72;5029260;28;20140;-66
2021/10/08 05:53:09;;;;;;;8.27;4.15;;;;;;;17.60;62.44;100586.00;5031847;28;20077;-63
2021/10/08 05:55:37;;;;;;;8.68;4.40;;;;;;;17.52;62.43;100584.00;5027499;28;20069;-65
2021/10/08 05:58:06;;;;;;;9.38;4.35;;;;;;;17.52;62.37;100584.84;5024506;28;20125;-65
2021/10/08 06:00:34;;;;;;;10.70;4.40;;;;;;;17.52;62.41;100590.47;5018115;28;20594;-64
2021/10/08 06:03:05;;;;;;;9.82;4.47;;;;;;;17.52;62.26;100606.59;5026115;28;20413;-65
2021/10/08 06:05:37;;;;;;;9.63;4.43;;;;;;;17.29;62.54;100597.34;5025846;28;20076;-65
2021/10/08 06:08:08;;;;;;;8.88;3.65;;;;;;;17.13;63.34;100598.91;5015507;28;20073;-64
2021/10/08 06:10:37;;;;;;;9.75;4.35;;;;;;;17.08;63.31;100599.91;5022157;28;20429;-64
2021/10/08 06:13:04;;;;;;;10.85;5.65;;;;;;;17.10;62.90;100605.25;5024131;28;20084;-66
2021/10/08 06:15:31;;;;;;;9.52;4.70;;;;;;;17.10;63.11;100606.06;5028041;28;20133;-66
2021/10/08 06:17:58;;;;;;;10.95;5.28;;;;;;;16.97;63.13;100587.22;5015636;28;20141;-66
2021/10/08 06:20:26;;;;;;;9.63;4.72;;;;;;;17.00;63.07;100603.50;5030230;28;20394;-66
2021/10/08 06:22:55;;;;;;;9.85;4.57;;;;;;;17.06;62.96;100607.88;5020199;28;20058;-65
2021/10/08 06:25:22;;;;;;;10.15;4.07;;;;;;;17.12;63.07;100612.19;5020631;28;20136;-65
2021/10/08 06:27:51;;;;;;;8.98;4.75;;;;;;;17.10;63.22;100608.88;5018123;28;20433;-66
2021/10/08 06:30:20;;;;;;;9.15;4.97;;;;;;;17.01;63.18;100599.53;5020318;28;20116;-65
2021/10/08 06:32:48;;;;;;;8.70;4.50;;;;;;;16.89;63.34;100597.31;5018888;28;20072;-66
2021/10/08 06:35:16;;;;;;;8.15;4.05;;;;;;;16.83;63.68;100592.94;5026612;28;20058;-67
2021/10/08 06:37:43;;;;;;;6.25;3.85;;;;;;;16.85;63.67;100606.72;5014839;28;20129;-70
2021/10/08 06:40:11;;;;;;;9.73;4.18;;;;;;;16.81;63.68;100618.66;5015444;28;20081;-62
2021/10/08 06:42:39;;;;;;;12.35;3.78;;;;;;;16.80;63.71;100608.53;5015300;28;20484;-66
2021/10/08 06:45:06;;;;;;;9.00;3.85;;;;;;;16.71;64.00;100598.31;5029331;28;20042;-66
2021/10/08 06:47:33;;;;;;;11.00;4.30;;;;;;;16.71;64.09;100607.59;5021376;28;20549;-66
2021/10/08 06:50:00;;;;;;;5.60;3.92;;;;;;;16.72;63.93;100620.56;5017945;28;20081;-65
2021/10/08 06:52:27;;;;;;;11.32;4.22;;;;;;;16.58;63.86;100595.25;5025516;28;20128;-62
2021/10/08 06:54:53;;;;;;;8.20;4.13;;;;;;;16.71;64.09;100616.03;5020336;28;20136;-66
2021/10/08 06:57:20;;;;;;;10.27;4.30;;;;;;;16.63;64.36;100604.72;5032010;28;20073;-65
2021/10/08 06:59:47;;;;;;;6.25;3.80;;;;;;;16.84;63.67;100619.16;5022021;28;20369;-65
2021/10/08 07:02:14;;;;;;;9.82;4.53;;;;;;;16.90;63.63;100626.34;5027955;28;22374;-64
2021/10/08 07:04:41;;;;;;;7.43;4.13;;;;;;;17.08;63.24;100630.94;5026429;28;20069;-64
2021/10/08 07:07:08;;;;;;;8.00;3.85;;;;;;;17.19;63.07;100620.22;5012793;28;20053;-64
2021/10/08 07:09:34;;;;;;;6.60;4.03;;;;;;;17.36;63.13;100627.94;5021410;28;20144;-64
2021/10/08 07:12:02;;;;;;;9.88;4.03;;;;;;;17.42;62.65;100632.28;5016674;28;20084;-64
2021/10/08 07:14:40;;;;;;;8.57;4.28;;;;;;;17.56;62.65;100627.38;5083295;28;20160;-64
2021/10/08 07:17:07;;;;;;;8.02;4.40;;;;;;;17.60;62.06;100617.06;5068435;28;20171;-64
2021/10/08 07:19:34;;;;;;;9.32;3.60;;;;;;;17.68;62.42;100633.25;5067781;28;20049;-64
2021/10/08 07:22:01;;;;;;;11.05;3.97;;;;;;;17.83;62.15;100642.47;5061381;28;20556;-64
2021/10/08 07:24:27;;;;;;;8.73;3.50;;;;;;;18.00;61.75;100634.03;5058207;28;20143;-65
2021/10/08 07:26:54;;;;;;;11.23;4.07;;;;;;;18.16;61.48;100640.06;5069051;28;20135;-64
2021/10/08 07:29:22;;;;;;;9.90;5.00;;;;;;;18.26;61.08;100636.91;5067115;28;20072;-64
2021/10/08 07:31:49;;;;;;;9.15;4.63;;;;;;;18.45;60.52;100642.25;5066975;28;20466;-64
2021/10/08 07:34:16;;;;;;;8.63;3.78;;;;;;;18.69;60.17;100659.53;5067446;28;20057;-64
2021/10/08 07:36:43;;;;;;;12.23;3.97;;;;;;;18.81;59.95;100658.09;5066671;28;20049;-64
2021/10/08 07:39:10;;;;;;;8.73;3.65;;;;;;;18.92;59.67;100645.28;5064301;28;20041;-63
2021/10/08 07:41:37;;;;;;;6.38;3.13;;;;;;;19.20;59.39;100656.22;5067238;28;20044;-64
2021/10/08 07:44:04;;;;;;;10.00;3.92;;;;;;;19.44;58.86;100667.81;5050332;28;20073;-64
2021/10/08 07:46:31;;;;;;;7.88;4.25;;;;;;;19.70;58.43;100666.94;5066002;28;20068;-64
2021/10/08 07:48:58;;;;;;;8.70;3.92;;;;;;;19.61;57.82;100615.91;5067694;28;20095;-64
2021/10/08 07:51:24;;;;;;;8.15;3.67;;;;;;;20.13;57.27;100656.19;5064310;28;20131;-64
2021/10/08 07:53:51;;;;;;;9.15;4.22;;;;;;;20.48;57.10;100660.81;5045623;28;20506;-64
2021/10/08 07:56:18;;;;;;;7.68;4.13;;;;;;;20.71;56.50;100655.63;5057791;28;20605;-64
2021/10/08 07:58:45;;;;;;;13.52;4.32;;;;;;;20.72;56.40;100609.09;5036598;28;20088;-64
2021/10/08 08:01:12;;;;;;;10.27;4.25;;;;;;;21.31;55.73;100657.06;5039014;28;20135;-63
2021/10/08 08:03:39;;;;;;;7.65;3.85;;;;;;;21.63;55.54;100660.25;5056440;28;20044;-63
2021/10/08 08:06:09;;;;;;;6.65;3.90;;;;;;;22.01;54.72;100660.75;5066577;28;20110;-63
2021/10/08 08:08:36;;;;;;;10.30;4.18;;;;;;;22.51;53.85;100661.56;5054278;28;20072;-64
2021/10/08 08:11:03;;;;;;;8.30;4.10;;;;;;;22.83;52.81;100650.31;5063710;28;20068;-64
2021/10/08 08:13:29;;;;;;;6.85;3.55;;;;;;;23.52;52.22;100673.88;5055552;28;20483;-63
2021/10/08 08:15:56;;;;;;;9.93;4.50;;;;;;;23.86;51.54;100658.09;5056206;28;20124;-65
2021/10/08 08:18:23;;;;;;;6.30;3.90;;;;;;;24.48;51.45;100664.97;5063533;28;20051;-63
2021/10/08 08:20:50;;;;;;;7.20;4.45;;;;;;;24.97;49.79;100675.84;5043253;28;20087;-63
2021/10/08 08:23:17;;;;;;;9.40;4.15;;;;;;;25.32;49.35;100676.97;5055503;28;20453;-63
2021/10/08 08:25:44;;;;;;;8.07;4.38;;;;;;;25.67;48.37;100682.53;5032775;28;20075;-63
2021/10/08 08:28:11;;;;;;;7.47;4.18;;;;;;;25.95;47.32;100670.84;5040071;28;20333;-63
2021/10/08 08:30:40;;;;;;;9.23;4.85;;;;;;;26.60;46.59;100687.84;5045959;28;20077;-63
2021/10/08 08:33:07;;;;;;;11.73;4.57;;;;;;;27.00;46.11;100666.28;5048884;28;20053;-63
2021/10/08 08:35:34;;;;;;;7.55;4.03;;;;;;;27.50;44.84;100686.97;5042084;28;20087;-62
2021/10/08 08:38:01;;;;;;;8.10;5.07;;;;;;;27.99;44.57;100691.56;5037530;28;20408;-63
2021/10/08 08:40:29;;;;;;;13.75;5.60;;;;;;;28.56;43.49;100705.59;5050688;28;20143;-64
2021/10/08 08:42:57;;;;;;;10.82;6.20;;;;;;;29.08;42.24;100691.16;5034570;28;20136;-63
2021/10/08 08:45:26;;;;;;;12.07;6.78;;;;;;;29.48;42.47;100702.38;5052036;28;20484;-62
2021/10/08 08:47:57;;;;;;;12.77;5.85;;;;;;;29.84;41.78;100696.72;5052041;28;20049;-64
2021/10/08 08:50:26;;;;;;;12.60;7.53;;;;;;;30.27;40.84;100702.56;5043692;28;20144;-63
2021/10/08 08:52:53;;;;;;;14.65;6.80;;;;;;;30.69;39.84;100700.84;5043997;28;20141;-63
2021/10/08 08:55:21;;;;;;;10.02;6.10;;;;;;;31.09;39.10;100707.34;5040165;28;20064;-63
2021/10/08 08:57:49;;;;;;;12.10;6.22;;;;;;;31.49;38.56;100690.69;5048019;28;20082;-62
2021/10/08 09:00:19;;;;;;;13.10;5.25;;;;;;;31.74;38.36;100702.91;5049854;28;20049;-63
2021/10/08 09:03:09;;;;;;;9.48;5.63;;;;;;;32.00;37.76;100700.69;5036709;28;20073;-63
2021/10/08 09:05:37;;;;;;;17.27;5.13;;;;;;;32.20;36.26;100707.53;5046896;28;20180;-63
2021/10/08 09:08:06;;;;;;;5.88;3.30;;;;;;;32.55;35.36;100705.63;5037350;28;20045;-64
2021/10/08 09:10:38;;;;;;;12.43;4.45;;;;;;;32.65;34.94;100698.91;5040745;28;20136;-64
2021/10/08 09:13:05;;;;;;;7.55;3.70;;;;;;;32.93;34.12;100706.44;5040834;28;20049;-64
2021/10/08 09:15:52;;;;;;;5.45;3.55;;;;;;;33.13;34.27;100700.88;5039778;28;20045;-62
2021/10/08 09:18:21;;;;;;;5.82;3.15;;;;;;;33.35;33.28;100689.00;5041115;28;20045;-63
2021/10/08 09:21:15;;;;;;;6.47;3.38;;;;;;;33.67;33.13;100705.94;5043168;28;20076;-63
2021/10/08 09:23:48;;;;;;;6.28;3.67;;;;;;;33.95;32.11;100704.72;5045041;28;20132;-63
2021/10/08 09:26:21;;;;;;;6.47;3.67;;;;;;;34.17;32.04;100716.81;5045651;28;20069;-65
2021/10/08 09:29:02;;;;;;;7.63;4.13;;;;;;;34.31;32.18;100698.34;5045573;28;20136;-65
2021/10/08 09:31:40;;;;;;;10.63;3.90;;;;;;;34.50;31.83;100705.44;5029967;28;20499;-64
2021/10/08 09:34:18;;;;;;;9.05;4.78;;;;;;;34.73;31.67;100704.66;5045706;28;20127;-65
2021/10/08 09:36:49;;;;;;;6.80;3.58;;;;;;;34.88;30.97;100703.13;5040858;28;20159;-65
2021/10/08 09:39:21;;;;;;;7.97;3.55;;;;;;;34.99;30.21;100708.69;5040548;28;20084;-65
2021/10/08 09:42:00;;;;;;;6.38;3.50;;;;;;;34.94;30.63;100698.41;5048310;28;20130;-66
2021/10/08 09:44:29;;;;;;;6.88;3.97;;;;;;;35.13;29.89;100709.25;5034729;28;20583;-67
2021/10/08 09:47:09;;;;;;;12.80;5.00;;;;;;;35.16;30.05;100713.34;5046187;28;20116;-66
2021/10/08 09:49:38;;;;;;;9.48;4.88;;;;;;;35.38;29.99;100713.69;5049338;28;20076;-67
2021/10/08 09:52:23;;;;;;;12.55;6.35;;;;;;;35.44;30.59;100714.81;5047158;28;20123;-67
2021/10/08 09:55:02;;;;;;;12.98;7.47;;;;;;;35.68;30.14;100709.72;5041649;28;20076;-67
2021/10/08 09:57:49;;;;;;;13.15;7.63;;;;;;;35.77;29.98;100695.41;5039391;28;20076;-67
2021/10/08 10:00:37;;;;;;;12.52;5.90;;;;;;;35.95;30.47;100703.69;5042839;28;20131;-67
2021/10/08 10:03:06;;;;;;;16.27;6.60;;;;;;;36.16;29.89;100711.09;5037937;28;20041;-66
2021/10/08 10:05:35;;;;;;;16.85;7.28;;;;;;;36.31;29.70;100705.75;5041274;28;20124;-67
2021/10/08 10:08:03;;;;;;;13.80;6.57;;;;;;;36.43;29.48;100721.63;5033818;28;20049;-68
2021/10/08 10:10:31;;;;;;;7.95;5.45;;;;;;;36.50;29.18;100725.19;5034404;28;20045;-66
2021/10/08 10:13:00;;;;;;;12.77;6.47;;;;;;;36.68;29.14;100724.72;5044226;28;20061;-67
2021/10/08 10:15:27;;;;;;;15.00;6.22;;;;;;;36.82;28.50;100729.31;5043691;28;20294;-67
2021/10/08 10:17:56;;;;;;;8.95;5.15;;;;;;;36.92;28.66;100733.22;5041102;28;20132;-67
2021/10/08 10:20:24;;;;;;;11.48;4.88;;;;;;;36.93;28.40;100723.22;5042082;28;20049;-67
2021/10/08 10:22:52;;;;;;;9.02;5.53;;;;;;;37.09;27.48;100713.63;5045970;28;20080;-67
2021/10/08 10:25:20;;;;;;;9.20;5.05;;;;;;;37.12;27.95;100718.53;5046520;28;20470;-68
2021/10/08 10:27:47;;;;;;;10.33;4.97;;;;;;;37.11;28.11;100705.28;5047872;28;20128;-67
2021/10/08 10:30:17;;;;;;;11.10;5.18;;;;;;;37.30;27.42;100724.69;5040170;28;20045;-68
2021/10/08 10:32:46;;;;;;;10.25;5.43;;;;;;;37.33;27.32;100711.25;5046546;28;20136;-67
2021/10/08 10:35:37;;;;;;;9.25;5.78;;;;;;;37.22;27.50;100718.22;5044743;28;20140;-68
2021/10/08 10:38:23;;;;;;;10.48;4.72;;;;;;;37.19;27.24;100713.31;5045497;28;20091;-68
2021/10/08 10:41:08;;;;;;;7.10;4.43;;;;;;;37.18;27.90;100713.78;5044261;28;20049;-68
2021/10/08 10:43:43;;;;;;;7.78;4.28;;;;;;;37.46;27.09;100707.13;5038331;28;20064;-68
2021/10/08 10:46:58;;;;;;;8.45;4.68;;;;;;;37.53;27.72;100708.19;5038564;28;20535;-68
2021/10/08 10:49:34;;;;;;;7.93;4.55;;;;;;;37.80;26.26;100707.75;5001442;28;20496;-67
2021/10/08 10:52:02;;;;;;;8.70;4.95;;;;;;;37.97;26.69;100720.97;5037612;28;20041;-67
2021/10/08 10:54:34;;;;;;;9.77;4.65;;;;;;;38.02;26.33;100710.81;5040705;28;20497;-67
2021/10/08 10:57:03;;;;;;;11.15;4.35;;;;;;;38.12;26.37;100704.63;5049037;28;20045;-67
2021/10/08 10:59:32;;;;;;;12.00;4.80;;;;;;;38.20;25.76;100689.81;5045655;28;20132;-66
2021/10/08 11:02:09;;;;;;;7.80;4.43;;;;;;;38.32;25.88;100697.72;5041399;28;20044;-67
2021/10/08 11:04:38;;;;;;;8.43;4.30;;;;;;;38.55;25.81;100708.19;5041349;28;20453;-67
2021/10/08 11:07:16;;;;;;;6.22;3.60;;;;;;;38.66;25.69;100694.03;5040619;28;20081;-67
2021/10/08 11:09:44;;;;;;;;;;;;;;;38.62;26.53;100697.06;5041678;28;20045;-67
2021/10/08 11:12:40;;;;;;;8.38;4.38;;;;;;;39.03;25.64;100703.13;5048706;28;19995;-67
2021/10/08 11:15:19;;;;;;;8.95;4.03;;;;;;;39.35;25.25;100696.06;5045352;28;20065;-67
2021/10/08 11:17:53;;;;;;;6.07;3.47;;;;;;;39.54;24.65;100686.13;5051500;28;20049;-67
2021/10/08 11:21:03;;;;;;;9.45;4.03;;;;;;;39.86;24.52;100689.06;5027588;28;20088;-67
2021/10/08 11:23:29;;;;;;;5.50;3.45;;;;;;;40.17;23.38;100692.78;5040839;28;20543;-68
2021/10/08 11:26:02;;;;;;;8.75;3.90;;;;;;;40.52;23.15;100683.78;5050001;28;20535;-67
2021/10/08 11:28:31;;;;;;;5.82;3.47;;;;;;;40.85;22.22;100683.16;5031822;28;20052;-67
2021/10/08 11:31:00;;;;;;;5.78;3.83;;;;;;;41.24;21.87;100689.34;5043195;28;20132;-68